sensor_id;sensor_type;location;lat;lon;timestamp;P1;durP1;ratioP1;P2;durP2;ratioP2
56242;SDS011;42155;53.096;23.226;2023-08-24T00:01:38;15.88;;;5.05;;
56242;SDS011;42155;53.096;23.226;2023-08-24T00:03:39;9.20;;;4.15;;
56242;SDS011;42155;53.096;23.226;2023-08-24T00:05:40;10.13;;;4.13;;
56242;SDS011;42155;53.096;23.226;2023-08-24T00:07:40;12.10;;;4.53;;
56242;SDS011;42155;53.096;23.226;2023-08-24T00:09:41;10.88;;;3.95;;
56242;SDS011;42155;53.096;23.226;2023-08-24T00:11:41;7.95;;;4.10;;
56242;SDS011;42155;53.096;23.226;2023-08-24T00:13:42;11.98;;;4.35;;
56242;SDS011;42155;53.096;23.226;2023-08-24T00:15:43;16.88;;;4.50;;
56242;SDS011;42155;53.096;23.226;2023-08-24T00:17:44;9.38;;;4.20;;
56242;SDS011;42155;53.096;23.226;2023-08-24T00:19:44;14.52;;;4.30;;
56242;SDS011;42155;53.096;23.226;2023-08-24T00:21:45;14.23;;;4.40;;
56242;SDS011;42155;53.096;23.226;2023-08-24T00:23:45;11.15;;;4.53;;
56242;SDS011;42155;53.096;23.226;2023-08-24T00:25:45;13.00;;;4.32;;
56242;SDS011;42155;53.096;23.226;2023-08-24T00:27:46;7.70;;;3.88;;
56242;SDS011;42155;53.096;23.226;2023-08-24T00:29:46;9.77;;;4.47;;
56242;SDS011;42155;53.096;23.226;2023-08-24T00:31:46;11.27;;;4.43;;
56242;SDS011;42155;53.096;23.226;2023-08-24T00:33:47;10.80;;;3.90;;
56242;SDS011;42155;53.096;23.226;2023-08-24T00:35:47;10.98;;;3.90;;
56242;SDS011;42155;53.096;23.226;2023-08-24T00:37:48;7.40;;;3.50;;
56242;SDS011;42155;53.096;23.226;2023-08-24T00:39:48;9.57;;;3.58;;
56242;SDS011;42155;53.096;23.226;2023-08-24T00:41:48;8.90;;;4.00;;
56242;SDS011;42155;53.096;23.226;2023-08-24T00:43:49;7.50;;;3.72;;
56242;SDS011;42155;53.096;23.226;2023-08-24T00:45:49;6.00;;;3.63;;
56242;SDS011;42155;53.096;23.226;2023-08-24T00:47:51;8.20;;;3.72;;
56242;SDS011;42155;53.096;23.226;2023-08-24T00:49:52;12.35;;;3.67;;
56242;SDS011;42155;53.096;23.226;2023-08-24T00:51:52;9.77;;;4.00;;
56242;SDS011;42155;53.096;23.226;2023-08-24T00:53:53;7.20;;;3.60;;
56242;SDS011;42155;53.096;23.226;2023-08-24T00:55:53;7.85;;;3.60;;
56242;SDS011;42155;53.096;23.226;2023-08-24T00:57:54;7.13;;;3.53;;
56242;SDS011;42155;53.096;23.226;2023-08-24T00:59:55;9.18;;;3.13;;
56242;SDS011;42155;53.096;23.226;2023-08-24T01:01:56;8.23;;;3.95;;
56242;SDS011;42155;53.096;23.226;2023-08-24T01:03:58;7.95;;;3.85;;
56242;SDS011;42155;53.096;23.226;2023-08-24T01:05:59;8.07;;;3.50;;
56242;SDS011;42155;53.096;23.226;2023-08-24T01:07:59;16.17;;;4.40;;
56242;SDS011;42155;53.096;23.226;2023-08-24T01:10:00;10.23;;;3.72;;
56242;SDS011;42155;53.096;23.226;2023-08-24T01:16:26;8.30;;;3.63;;
56242;SDS011;42155;53.096;23.226;2023-08-24T01:18:28;10.57;;;4.05;;
56242;SDS011;42155;53.096;23.226;2023-08-24T01:20:30;9.25;;;4.25;;
56242;SDS011;42155;53.096;23.226;2023-08-24T01:22:49;11.07;;;3.80;;
56242;SDS011;42155;53.096;23.226;2023-08-24T01:27:11;9.80;;;3.90;;
56242;SDS011;42155;53.096;23.226;2023-08-24T01:29:13;7.10;;;3.70;;
56242;SDS011;42155;53.096;23.226;2023-08-24T01:31:14;7.60;;;3.80;;
56242;SDS011;42155;53.096;23.226;2023-08-24T01:33:15;8.40;;;4.10;;
56242;SDS011;42155;53.096;23.226;2023-08-24T01:35:15;7.93;;;3.72;;
56242;SDS011;42155;53.096;23.226;2023-08-24T01:37:16;7.95;;;3.25;;
56242;SDS011;42155;53.096;23.226;2023-08-24T01:39:30;6.57;;;3.75;;
56242;SDS011;42155;53.096;23.226;2023-08-24T01:41:39;6.90;;;3.42;;
56242;SDS011;42155;53.096;23.226;2023-08-24T01:43:43;9.02;;;3.63;;
56242;SDS011;42155;53.096;23.226;2023-08-24T01:45:46;7.18;;;3.63;;
56242;SDS011;42155;53.096;23.226;2023-08-24T01:47:48;7.85;;;3.10;;
56242;SDS011;42155;53.096;23.226;2023-08-24T01:49:49;6.35;;;3.08;;
56242;SDS011;42155;53.096;23.226;2023-08-24T01:51:51;6.65;;;3.25;;
56242;SDS011;42155;53.096;23.226;2023-08-24T01:53:52;7.45;;;3.17;;
56242;SDS011;42155;53.096;23.226;2023-08-24T01:55:53;7.20;;;2.88;;
56242;SDS011;42155;53.096;23.226;2023-08-24T01:57:55;11.48;;;3.47;;
56242;SDS011;42155;53.096;23.226;2023-08-24T01:59:55;5.82;;;3.33;;
56242;SDS011;42155;53.096;23.226;2023-08-24T02:01:56;14.63;;;3.58;;
56242;SDS011;42155;53.096;23.226;2023-08-24T02:03:56;7.22;;;3.40;;
56242;SDS011;42155;53.096;23.226;2023-08-24T02:05:56;6.45;;;3.10;;
56242;SDS011;42155;53.096;23.226;2023-08-24T02:07:57;5.50;;;3.42;;
56242;SDS011;42155;53.096;23.226;2023-08-24T02:09:57;7.55;;;3.10;;
56242;SDS011;42155;53.096;23.226;2023-08-24T02:11:58;7.47;;;3.50;;
56242;SDS011;42155;53.096;23.226;2023-08-24T02:13:58;10.32;;;3.47;;
56242;SDS011;42155;53.096;23.226;2023-08-24T02:16:04;7.63;;;3.47;;
56242;SDS011;42155;53.096;23.226;2023-08-24T02:18:06;5.15;;;3.50;;
56242;SDS011;42155;53.096;23.226;2023-08-24T02:20:07;5.95;;;3.20;;
56242;SDS011;42155;53.096;23.226;2023-08-24T02:22:08;6.57;;;2.92;;
56242;SDS011;42155;53.096;23.226;2023-08-24T02:24:08;7.28;;;3.42;;
56242;SDS011;42155;53.096;23.226;2023-08-24T02:26:08;6.03;;;2.92;;
56242;SDS011;42155;53.096;23.226;2023-08-24T02:28:09;6.43;;;2.95;;
56242;SDS011;42155;53.096;23.226;2023-08-24T02:30:09;6.47;;;3.05;;
56242;SDS011;42155;53.096;23.226;2023-08-24T02:32:10;5.28;;;3.17;;
56242;SDS011;42155;53.096;23.226;2023-08-24T02:34:10;6.85;;;3.45;;
56242;SDS011;42155;53.096;23.226;2023-08-24T02:36:10;7.18;;;3.20;;
56242;SDS011;42155;53.096;23.226;2023-08-24T02:38:11;10.57;;;3.47;;
56242;SDS011;42155;53.096;23.226;2023-08-24T02:40:11;7.22;;;3.35;;
56242;SDS011;42155;53.096;23.226;2023-08-24T02:42:11;5.97;;;3.33;;
56242;SDS011;42155;53.096;23.226;2023-08-24T02:44:12;8.02;;;3.20;;
56242;SDS011;42155;53.096;23.226;2023-08-24T02:46:12;8.65;;;2.97;;
56242;SDS011;42155;53.096;23.226;2023-08-24T02:48:12;9.50;;;3.30;;
56242;SDS011;42155;53.096;23.226;2023-08-24T02:50:13;6.88;;;2.90;;
56242;SDS011;42155;53.096;23.226;2023-08-24T02:52:13;9.30;;;3.42;;
56242;SDS011;42155;53.096;23.226;2023-08-24T02:54:13;10.25;;;3.40;;
56242;SDS011;42155;53.096;23.226;2023-08-24T02:56:14;7.47;;;3.50;;
56242;SDS011;42155;53.096;23.226;2023-08-24T02:58:14;7.05;;;3.40;;
56242;SDS011;42155;53.096;23.226;2023-08-24T03:00:15;6.32;;;3.10;;
56242;SDS011;42155;53.096;23.226;2023-08-24T03:02:15;5.72;;;2.88;;
56242;SDS011;42155;53.096;23.226;2023-08-24T03:04:15;7.03;;;3.22;;
56242;SDS011;42155;53.096;23.226;2023-08-24T03:06:16;6.65;;;2.83;;
56242;SDS011;42155;53.096;23.226;2023-08-24T03:08:16;7.20;;;3.00;;
56242;SDS011;42155;53.096;23.226;2023-08-24T03:10:16;11.73;;;3.58;;
56242;SDS011;42155;53.096;23.226;2023-08-24T03:12:17;6.70;;;3.15;;
56242;SDS011;42155;53.096;23.226;2023-08-24T03:14:17;7.25;;;3.30;;
56242;SDS011;42155;53.096;23.226;2023-08-24T03:16:17;6.25;;;3.28;;
56242;SDS011;42155;53.096;23.226;2023-08-24T03:18:18;5.85;;;2.92;;
56242;SDS011;42155;53.096;23.226;2023-08-24T03:20:19;7.15;;;3.10;;
56242;SDS011;42155;53.096;23.226;2023-08-24T03:22:19;10.73;;;3.47;;
56242;SDS011;42155;53.096;23.226;2023-08-24T03:24:20;9.05;;;3.17;;
56242;SDS011;42155;53.096;23.226;2023-08-24T03:26:20;5.80;;;3.17;;
56242;SDS011;42155;53.096;23.226;2023-08-24T03:28:20;6.22;;;3.38;;
56242;SDS011;42155;53.096;23.226;2023-08-24T03:30:21;7.25;;;3.05;;
56242;SDS011;42155;53.096;23.226;2023-08-24T03:32:21;7.47;;;3.30;;
56242;SDS011;42155;53.096;23.226;2023-08-24T03:34:21;8.27;;;4.18;;
56242;SDS011;42155;53.096;23.226;2023-08-24T03:36:21;5.03;;;3.10;;
56242;SDS011;42155;53.096;23.226;2023-08-24T03:38:22;7.55;;;2.85;;
56242;SDS011;42155;53.096;23.226;2023-08-24T03:40:22;8.27;;;3.05;;
56242;SDS011;42155;53.096;23.226;2023-08-24T03:42:23;6.13;;;3.10;;
56242;SDS011;42155;53.096;23.226;2023-08-24T03:44:23;7.10;;;2.92;;
56242;SDS011;42155;53.096;23.226;2023-08-24T03:46:23;6.28;;;3.67;;
56242;SDS011;42155;53.096;23.226;2023-08-24T03:48:24;5.57;;;3.60;;
56242;SDS011;42155;53.096;23.226;2023-08-24T03:50:24;7.45;;;3.30;;
56242;SDS011;42155;53.096;23.226;2023-08-24T03:52:24;7.93;;;3.30;;
56242;SDS011;42155;53.096;23.226;2023-08-24T03:54:25;6.70;;;3.03;;
56242;SDS011;42155;53.096;23.226;2023-08-24T03:56:25;7.80;;;3.47;;
56242;SDS011;42155;53.096;23.226;2023-08-24T03:58:25;11.77;;;3.40;;
56242;SDS011;42155;53.096;23.226;2023-08-24T04:00:26;9.73;;;3.55;;
56242;SDS011;42155;53.096;23.226;2023-08-24T04:02:26;7.82;;;2.97;;
56242;SDS011;42155;53.096;23.226;2023-08-24T04:04:26;7.10;;;3.05;;
56242;SDS011;42155;53.096;23.226;2023-08-24T04:06:27;14.25;;;3.40;;
56242;SDS011;42155;53.096;23.226;2023-08-24T04:08:27;5.45;;;2.58;;
56242;SDS011;42155;53.096;23.226;2023-08-24T04:10:28;6.90;;;2.42;;
56242;SDS011;42155;53.096;23.226;2023-08-24T04:12:29;8.02;;;3.03;;
56242;SDS011;42155;53.096;23.226;2023-08-24T04:14:30;6.00;;;2.58;;
56242;SDS011;42155;53.096;23.226;2023-08-24T04:16:30;6.10;;;2.58;;
56242;SDS011;42155;53.096;23.226;2023-08-24T04:18:30;8.27;;;2.63;;
56242;SDS011;42155;53.096;23.226;2023-08-24T04:20:31;8.63;;;2.70;;
56242;SDS011;42155;53.096;23.226;2023-08-24T04:22:31;6.13;;;2.33;;
56242;SDS011;42155;53.096;23.226;2023-08-24T04:24:32;7.70;;;2.97;;
56242;SDS011;42155;53.096;23.226;2023-08-24T04:26:32;9.32;;;2.72;;
56242;SDS011;42155;53.096;23.226;2023-08-24T04:28:32;6.03;;;2.60;;
56242;SDS011;42155;53.096;23.226;2023-08-24T04:30:33;5.97;;;2.20;;
56242;SDS011;42155;53.096;23.226;2023-08-24T04:32:33;9.43;;;2.42;;
56242;SDS011;42155;53.096;23.226;2023-08-24T04:34:33;7.82;;;2.55;;
56242;SDS011;42155;53.096;23.226;2023-08-24T04:36:33;11.93;;;3.05;;
56242;SDS011;42155;53.096;23.226;2023-08-24T04:38:34;8.45;;;2.95;;
56242;SDS011;42155;53.096;23.226;2023-08-24T04:40:48;11.68;;;2.53;;
56242;SDS011;42155;53.096;23.226;2023-08-24T04:42:52;7.03;;;2.63;;
56242;SDS011;42155;53.096;23.226;2023-08-24T04:44:52;9.63;;;2.60;;
56242;SDS011;42155;53.096;23.226;2023-08-24T04:46:52;6.70;;;2.50;;
56242;SDS011;42155;53.096;23.226;2023-08-24T04:48:53;6.45;;;2.67;;
56242;SDS011;42155;53.096;23.226;2023-08-24T04:50:53;8.55;;;2.72;;
56242;SDS011;42155;53.096;23.226;2023-08-24T04:52:53;9.88;;;2.55;;
56242;SDS011;42155;53.096;23.226;2023-08-24T04:54:54;9.98;;;2.80;;
56242;SDS011;42155;53.096;23.226;2023-08-24T04:56:54;8.52;;;2.97;;
56242;SDS011;42155;53.096;23.226;2023-08-24T04:58:55;8.25;;;3.72;;
56242;SDS011;42155;53.096;23.226;2023-08-24T05:00:55;11.35;;;4.00;;
56242;SDS011;42155;53.096;23.226;2023-08-24T05:02:56;8.10;;;2.80;;
56242;SDS011;42155;53.096;23.226;2023-08-24T05:04:56;13.27;;;3.35;;
56242;SDS011;42155;53.096;23.226;2023-08-24T05:06:56;7.82;;;3.00;;
56242;SDS011;42155;53.096;23.226;2023-08-24T05:08:57;8.85;;;3.00;;
56242;SDS011;42155;53.096;23.226;2023-08-24T05:10:57;8.20;;;3.22;;
56242;SDS011;42155;53.096;23.226;2023-08-24T05:12:57;5.57;;;2.42;;
56242;SDS011;42155;53.096;23.226;2023-08-24T05:14:58;8.25;;;3.08;;
56242;SDS011;42155;53.096;23.226;2023-08-24T05:16:58;6.50;;;2.90;;
56242;SDS011;42155;53.096;23.226;2023-08-24T05:18:58;8.18;;;2.50;;
56242;SDS011;42155;53.096;23.226;2023-08-24T05:20:59;5.90;;;2.90;;
56242;SDS011;42155;53.096;23.226;2023-08-24T05:22:59;8.90;;;2.78;;
56242;SDS011;42155;53.096;23.226;2023-08-24T05:24:59;9.30;;;2.95;;
56242;SDS011;42155;53.096;23.226;2023-08-24T05:27:00;8.35;;;2.92;;
56242;SDS011;42155;53.096;23.226;2023-08-24T05:29:00;6.30;;;2.90;;
56242;SDS011;42155;53.096;23.226;2023-08-24T05:31:00;12.30;;;2.80;;
56242;SDS011;42155;53.096;23.226;2023-08-24T05:33:01;6.40;;;2.83;;
56242;SDS011;42155;53.096;23.226;2023-08-24T05:35:01;6.30;;;2.75;;
56242;SDS011;42155;53.096;23.226;2023-08-24T05:37:02;4.43;;;2.72;;
56242;SDS011;42155;53.096;23.226;2023-08-24T05:39:02;7.75;;;2.58;;
56242;SDS011;42155;53.096;23.226;2023-08-24T05:41:03;7.13;;;2.85;;
56242;SDS011;42155;53.096;23.226;2023-08-24T05:43:03;12.35;;;3.30;;
56242;SDS011;42155;53.096;23.226;2023-08-24T05:45:04;10.48;;;2.88;;
56242;SDS011;42155;53.096;23.226;2023-08-24T05:47:04;8.50;;;2.55;;
56242;SDS011;42155;53.096;23.226;2023-08-24T05:49:05;14.45;;;3.08;;
56242;SDS011;42155;53.096;23.226;2023-08-24T05:51:05;12.82;;;3.10;;
56242;SDS011;42155;53.096;23.226;2023-08-24T05:53:06;8.93;;;2.85;;
56242;SDS011;42155;53.096;23.226;2023-08-24T05:55:06;13.70;;;2.85;;
56242;SDS011;42155;53.096;23.226;2023-08-24T05:57:06;6.47;;;2.83;;
56242;SDS011;42155;53.096;23.226;2023-08-24T05:59:07;15.27;;;3.38;;
56242;SDS011;42155;53.096;23.226;2023-08-24T06:01:07;7.25;;;2.63;;
56242;SDS011;42155;53.096;23.226;2023-08-24T06:03:07;9.68;;;2.70;;
56242;SDS011;42155;53.096;23.226;2023-08-24T06:05:08;8.23;;;2.85;;
56242;SDS011;42155;53.096;23.226;2023-08-24T06:07:08;12.85;;;2.67;;
56242;SDS011;42155;53.096;23.226;2023-08-24T06:09:09;6.47;;;3.08;;
56242;SDS011;42155;53.096;23.226;2023-08-24T06:11:09;7.70;;;3.17;;
56242;SDS011;42155;53.096;23.226;2023-08-24T06:13:09;9.75;;;2.80;;
56242;SDS011;42155;53.096;23.226;2023-08-24T06:15:10;8.93;;;3.30;;
56242;SDS011;42155;53.096;23.226;2023-08-24T06:17:10;8.10;;;3.00;;
56242;SDS011;42155;53.096;23.226;2023-08-24T06:19:10;11.18;;;2.97;;
56242;SDS011;42155;53.096;23.226;2023-08-24T06:21:11;11.15;;;2.92;;
56242;SDS011;42155;53.096;23.226;2023-08-24T06:23:11;6.53;;;3.05;;
56242;SDS011;42155;53.096;23.226;2023-08-24T06:25:12;6.13;;;2.80;;
56242;SDS011;42155;53.096;23.226;2023-08-24T06:27:12;11.00;;;3.30;;
56242;SDS011;42155;53.096;23.226;2023-08-24T06:29:12;11.88;;;3.10;;
56242;SDS011;42155;53.096;23.226;2023-08-24T06:31:13;7.70;;;3.47;;
56242;SDS011;42155;53.096;23.226;2023-08-24T06:33:17;8.52;;;2.90;;
56242;SDS011;42155;53.096;23.226;2023-08-24T06:35:17;8.00;;;3.03;;
56242;SDS011;42155;53.096;23.226;2023-08-24T06:37:17;8.50;;;3.65;;
56242;SDS011;42155;53.096;23.226;2023-08-24T06:39:18;7.50;;;3.40;;
56242;SDS011;42155;53.096;23.226;2023-08-24T06:41:19;9.45;;;3.42;;
56242;SDS011;42155;53.096;23.226;2023-08-24T06:43:19;7.72;;;3.22;;
56242;SDS011;42155;53.096;23.226;2023-08-24T06:45:20;6.95;;;2.97;;
56242;SDS011;42155;53.096;23.226;2023-08-24T06:47:21;9.25;;;3.15;;
56242;SDS011;42155;53.096;23.226;2023-08-24T06:49:21;6.70;;;3.00;;
56242;SDS011;42155;53.096;23.226;2023-08-24T06:51:21;7.38;;;2.85;;
56242;SDS011;42155;53.096;23.226;2023-08-24T06:53:21;7.80;;;3.05;;
56242;SDS011;42155;53.096;23.226;2023-08-24T06:55:22;9.18;;;3.63;;
56242;SDS011;42155;53.096;23.226;2023-08-24T06:57:22;12.75;;;3.65;;
56242;SDS011;42155;53.096;23.226;2023-08-24T06:59:23;16.15;;;3.65;;
56242;SDS011;42155;53.096;23.226;2023-08-24T07:01:23;8.90;;;3.28;;
56242;SDS011;42155;53.096;23.226;2023-08-24T07:03:23;5.78;;;3.17;;
56242;SDS011;42155;53.096;23.226;2023-08-24T07:05:24;8.38;;;3.55;;
56242;SDS011;42155;53.096;23.226;2023-08-24T07:07:24;12.85;;;3.50;;
56242;SDS011;42155;53.096;23.226;2023-08-24T07:09:24;7.25;;;3.10;;
56242;SDS011;42155;53.096;23.226;2023-08-24T07:11:25;16.30;;;4.20;;
56242;SDS011;42155;53.096;23.226;2023-08-24T07:13:25;6.80;;;3.35;;
56242;SDS011;42155;53.096;23.226;2023-08-24T07:15:25;9.88;;;3.40;;
56242;SDS011;42155;53.096;23.226;2023-08-24T07:17:26;9.40;;;3.50;;
56242;SDS011;42155;53.096;23.226;2023-08-24T07:19:26;6.22;;;3.00;;
56242;SDS011;42155;53.096;23.226;2023-08-24T07:21:26;9.00;;;3.28;;
56242;SDS011;42155;53.096;23.226;2023-08-24T07:23:26;7.57;;;3.30;;
56242;SDS011;42155;53.096;23.226;2023-08-24T07:25:27;8.95;;;3.60;;
56242;SDS011;42155;53.096;23.226;2023-08-24T07:27:27;8.52;;;3.00;;
56242;SDS011;42155;53.096;23.226;2023-08-24T07:29:28;10.45;;;3.53;;
56242;SDS011;42155;53.096;23.226;2023-08-24T07:31:28;6.28;;;3.10;;
56242;SDS011;42155;53.096;23.226;2023-08-24T07:33:28;13.10;;;3.50;;
56242;SDS011;42155;53.096;23.226;2023-08-24T07:35:29;10.05;;;3.38;;
56242;SDS011;42155;53.096;23.226;2023-08-24T07:37:29;7.25;;;2.78;;
56242;SDS011;42155;53.096;23.226;2023-08-24T07:39:29;6.05;;;2.80;;
56242;SDS011;42155;53.096;23.226;2023-08-24T07:41:30;7.90;;;2.90;;
56242;SDS011;42155;53.096;23.226;2023-08-24T07:43:30;7.10;;;3.20;;
56242;SDS011;42155;53.096;23.226;2023-08-24T07:45:30;10.35;;;3.10;;
56242;SDS011;42155;53.096;23.226;2023-08-24T07:47:31;7.88;;;3.25;;
56242;SDS011;42155;53.096;23.226;2023-08-24T07:49:31;9.52;;;3.20;;
56242;SDS011;42155;53.096;23.226;2023-08-24T07:51:34;10.02;;;3.40;;
56242;SDS011;42155;53.096;23.226;2023-08-24T07:53:34;9.18;;;3.63;;
56242;SDS011;42155;53.096;23.226;2023-08-24T07:55:35;7.38;;;3.08;;
56242;SDS011;42155;53.096;23.226;2023-08-24T07:57:36;10.63;;;3.28;;
56242;SDS011;42155;53.096;23.226;2023-08-24T07:59:37;12.23;;;3.30;;
56242;SDS011;42155;53.096;23.226;2023-08-24T08:01:37;9.48;;;3.00;;
56242;SDS011;42155;53.096;23.226;2023-08-24T08:03:37;12.38;;;3.15;;
56242;SDS011;42155;53.096;23.226;2023-08-24T08:05:38;10.27;;;3.40;;
56242;SDS011;42155;53.096;23.226;2023-08-24T08:07:38;10.45;;;3.58;;
56242;SDS011;42155;53.096;23.226;2023-08-24T08:09:38;16.42;;;3.30;;
56242;SDS011;42155;53.096;23.226;2023-08-24T08:11:39;11.52;;;3.47;;
56242;SDS011;42155;53.096;23.226;2023-08-24T08:13:39;11.40;;;3.05;;
56242;SDS011;42155;53.096;23.226;2023-08-24T08:15:39;7.88;;;3.20;;
56242;SDS011;42155;53.096;23.226;2023-08-24T08:17:40;9.88;;;3.38;;
56242;SDS011;42155;53.096;23.226;2023-08-24T08:19:40;14.55;;;3.20;;
56242;SDS011;42155;53.096;23.226;2023-08-24T08:21:40;6.78;;;2.80;;
56242;SDS011;42155;53.096;23.226;2023-08-24T08:23:42;6.07;;;2.80;;
56242;SDS011;42155;53.096;23.226;2023-08-24T08:25:42;6.22;;;2.47;;
56242;SDS011;42155;53.096;23.226;2023-08-24T08:27:43;7.20;;;2.65;;
56242;SDS011;42155;53.096;23.226;2023-08-24T08:29:44;8.20;;;3.60;;
56242;SDS011;42155;53.096;23.226;2023-08-24T08:31:44;6.85;;;3.08;;
56242;SDS011;42155;53.096;23.226;2023-08-24T08:33:45;6.07;;;2.67;;
56242;SDS011;42155;53.096;23.226;2023-08-24T08:35:46;9.07;;;2.90;;
56242;SDS011;42155;53.096;23.226;2023-08-24T08:37:46;17.02;;;3.13;;
56242;SDS011;42155;53.096;23.226;2023-08-24T08:39:46;9.40;;;3.03;;
56242;SDS011;42155;53.096;23.226;2023-08-24T08:41:47;5.10;;;2.65;;
56242;SDS011;42155;53.096;23.226;2023-08-24T08:43:48;8.43;;;2.53;;
56242;SDS011;42155;53.096;23.226;2023-08-24T08:45:51;7.43;;;3.25;;
56242;SDS011;42155;53.096;23.226;2023-08-24T08:47:57;4.13;;;2.58;;
56242;SDS011;42155;53.096;23.226;2023-08-24T08:49:59;7.65;;;2.65;;
56242;SDS011;42155;53.096;23.226;2023-08-24T08:52:03;7.15;;;2.60;;
56242;SDS011;42155;53.096;23.226;2023-08-24T08:54:04;6.28;;;2.55;;
56242;SDS011;42155;53.096;23.226;2023-08-24T08:56:05;5.05;;;2.47;;
56242;SDS011;42155;53.096;23.226;2023-08-24T08:58:06;5.13;;;2.53;;
56242;SDS011;42155;53.096;23.226;2023-08-24T09:00:11;7.28;;;2.63;;
56242;SDS011;42155;53.096;23.226;2023-08-24T09:02:13;10.68;;;2.97;;
56242;SDS011;42155;53.096;23.226;2023-08-24T09:04:16;6.50;;;2.50;;
56242;SDS011;42155;53.096;23.226;2023-08-24T09:06:16;7.22;;;2.45;;
56242;SDS011;42155;53.096;23.226;2023-08-24T09:08:17;5.32;;;2.25;;
56242;SDS011;42155;53.096;23.226;2023-08-24T09:10:18;8.35;;;2.58;;
56242;SDS011;42155;53.096;23.226;2023-08-24T09:12:18;6.82;;;2.55;;
56242;SDS011;42155;53.096;23.226;2023-08-24T09:14:19;7.63;;;2.75;;
56242;SDS011;42155;53.096;23.226;2023-08-24T09:16:19;6.00;;;2.42;;
56242;SDS011;42155;53.096;23.226;2023-08-24T09:18:20;7.30;;;2.70;;
56242;SDS011;42155;53.096;23.226;2023-08-24T09:20:20;9.55;;;2.63;;
56242;SDS011;42155;53.096;23.226;2023-08-24T09:22:21;7.03;;;2.42;;
56242;SDS011;42155;53.096;23.226;2023-08-24T09:24:28;5.03;;;2.40;;
56242;SDS011;42155;53.096;23.226;2023-08-24T09:26:37;5.43;;;2.50;;
56242;SDS011;42155;53.096;23.226;2023-08-24T09:28:38;8.30;;;2.78;;
56242;SDS011;42155;53.096;23.226;2023-08-24T09:30:44;11.07;;;2.92;;
56242;SDS011;42155;53.096;23.226;2023-08-24T09:32:44;7.35;;;2.42;;
56242;SDS011;42155;53.096;23.226;2023-08-24T09:34:45;6.25;;;2.45;;
56242;SDS011;42155;53.096;23.226;2023-08-24T09:36:45;6.20;;;2.22;;
56242;SDS011;42155;53.096;23.226;2023-08-24T09:38:47;6.60;;;2.13;;
56242;SDS011;42155;53.096;23.226;2023-08-24T09:40:50;4.03;;;2.38;;
56242;SDS011;42155;53.096;23.226;2023-08-24T09:42:51;6.47;;;2.45;;
56242;SDS011;42155;53.096;23.226;2023-08-24T09:44:52;6.05;;;2.47;;
56242;SDS011;42155;53.096;23.226;2023-08-24T09:46:52;6.43;;;2.47;;
56242;SDS011;42155;53.096;23.226;2023-08-24T09:48:55;5.47;;;2.10;;
56242;SDS011;42155;53.096;23.226;2023-08-24T09:50:55;7.47;;;2.60;;
56242;SDS011;42155;53.096;23.226;2023-08-24T09:52:57;5.38;;;2.53;;
56242;SDS011;42155;53.096;23.226;2023-08-24T09:55:05;6.25;;;2.65;;
56242;SDS011;42155;53.096;23.226;2023-08-24T09:57:07;9.88;;;2.92;;
56242;SDS011;42155;53.096;23.226;2023-08-24T09:59:16;8.43;;;2.60;;
56242;SDS011;42155;53.096;23.226;2023-08-24T10:01:17;6.20;;;2.60;;
56242;SDS011;42155;53.096;23.226;2023-08-24T10:03:20;6.30;;;2.33;;
56242;SDS011;42155;53.096;23.226;2023-08-24T10:05:22;7.32;;;2.72;;
56242;SDS011;42155;53.096;23.226;2023-08-24T10:07:23;6.35;;;2.13;;
56242;SDS011;42155;53.096;23.226;2023-08-24T10:09:26;4.55;;;2.10;;
56242;SDS011;42155;53.096;23.226;2023-08-24T10:11:32;8.60;;;2.50;;
56242;SDS011;42155;53.096;23.226;2023-08-24T10:13:41;7.57;;;2.58;;
56242;SDS011;42155;53.096;23.226;2023-08-24T10:15:46;5.15;;;2.25;;
56242;SDS011;42155;53.096;23.226;2023-08-24T10:17:48;4.30;;;2.60;;
56242;SDS011;42155;53.096;23.226;2023-08-24T10:19:50;9.48;;;2.55;;
56242;SDS011;42155;53.096;23.226;2023-08-24T10:21:53;7.28;;;2.30;;
56242;SDS011;42155;53.096;23.226;2023-08-24T10:23:53;8.45;;;2.63;;
56242;SDS011;42155;53.096;23.226;2023-08-24T10:25:56;6.55;;;2.60;;
56242;SDS011;42155;53.096;23.226;2023-08-24T10:27:57;13.18;;;2.50;;
56242;SDS011;42155;53.096;23.226;2023-08-24T10:29:59;6.50;;;2.13;;
56242;SDS011;42155;53.096;23.226;2023-08-24T10:32:00;6.60;;;2.30;;
56242;SDS011;42155;53.096;23.226;2023-08-24T10:34:01;8.63;;;2.40;;
56242;SDS011;42155;53.096;23.226;2023-08-24T10:36:06;6.97;;;2.30;;
56242;SDS011;42155;53.096;23.226;2023-08-24T10:38:06;4.05;;;2.08;;
56242;SDS011;42155;53.096;23.226;2023-08-24T10:40:07;5.55;;;2.33;;
56242;SDS011;42155;53.096;23.226;2023-08-24T10:42:10;5.72;;;2.00;;
56242;SDS011;42155;53.096;23.226;2023-08-24T10:44:10;6.28;;;1.67;;
56242;SDS011;42155;53.096;23.226;2023-08-24T10:46:20;8.38;;;2.35;;
56242;SDS011;42155;53.096;23.226;2023-08-24T10:48:21;14.88;;;2.50;;
56242;SDS011;42155;53.096;23.226;2023-08-24T10:50:23;10.23;;;2.50;;
56242;SDS011;42155;53.096;23.226;2023-08-24T10:52:30;7.57;;;2.22;;
56242;SDS011;42155;53.096;23.226;2023-08-24T10:54:31;10.27;;;2.42;;
56242;SDS011;42155;53.096;23.226;2023-08-24T10:56:36;6.90;;;2.25;;
56242;SDS011;42155;53.096;23.226;2023-08-24T10:58:37;7.95;;;2.10;;
56242;SDS011;42155;53.096;23.226;2023-08-24T11:00:38;8.23;;;2.30;;
56242;SDS011;42155;53.096;23.226;2023-08-24T11:02:43;5.85;;;2.00;;
56242;SDS011;42155;53.096;23.226;2023-08-24T11:05:04;10.88;;;2.45;;
56242;SDS011;42155;53.096;23.226;2023-08-24T11:07:15;4.57;;;2.05;;
56242;SDS011;42155;53.096;23.226;2023-08-24T11:09:16;5.72;;;2.38;;
56242;SDS011;42155;53.096;23.226;2023-08-24T11:11:19;6.00;;;1.98;;
56242;SDS011;42155;53.096;23.226;2023-08-24T11:13:20;6.63;;;2.30;;
56242;SDS011;42155;53.096;23.226;2023-08-24T11:15:30;4.88;;;1.88;;
56242;SDS011;42155;53.096;23.226;2023-08-24T11:19:30;9.70;;;2.27;;
56242;SDS011;42155;53.096;23.226;2023-08-24T11:21:31;3.88;;;1.77;;
56242;SDS011;42155;53.096;23.226;2023-08-24T11:23:33;3.58;;;1.92;;
56242;SDS011;42155;53.096;23.226;2023-08-24T11:25:38;5.57;;;2.20;;
56242;SDS011;42155;53.096;23.226;2023-08-24T11:27:38;6.68;;;1.90;;
56242;SDS011;42155;53.096;23.226;2023-08-24T11:29:40;5.63;;;1.70;;
56242;SDS011;42155;53.096;23.226;2023-08-24T11:31:41;5.65;;;1.80;;
56242;SDS011;42155;53.096;23.226;2023-08-24T11:33:41;8.70;;;1.67;;
56242;SDS011;42155;53.096;23.226;2023-08-24T11:35:42;6.45;;;2.00;;
56242;SDS011;42155;53.096;23.226;2023-08-24T11:37:44;4.25;;;1.88;;
56242;SDS011;42155;53.096;23.226;2023-08-24T11:39:54;6.60;;;2.15;;
56242;SDS011;42155;53.096;23.226;2023-08-24T11:42:01;6.18;;;2.08;;
56242;SDS011;42155;53.096;23.226;2023-08-24T11:44:03;8.43;;;2.45;;
56242;SDS011;42155;53.096;23.226;2023-08-24T11:46:03;6.45;;;2.20;;
56242;SDS011;42155;53.096;23.226;2023-08-24T11:48:04;7.63;;;2.25;;
56242;SDS011;42155;53.096;23.226;2023-08-24T11:50:04;7.30;;;2.53;;
56242;SDS011;42155;53.096;23.226;2023-08-24T11:52:05;8.23;;;2.40;;
56242;SDS011;42155;53.096;23.226;2023-08-24T11:54:06;5.38;;;2.10;;
56242;SDS011;42155;53.096;23.226;2023-08-24T11:56:10;3.45;;;1.63;;
56242;SDS011;42155;53.096;23.226;2023-08-24T11:58:15;5.50;;;2.10;;
56242;SDS011;42155;53.096;23.226;2023-08-24T12:00:15;3.80;;;1.90;;
56242;SDS011;42155;53.096;23.226;2023-08-24T12:02:18;6.57;;;1.85;;
56242;SDS011;42155;53.096;23.226;2023-08-24T12:04:18;6.47;;;1.95;;
56242;SDS011;42155;53.096;23.226;2023-08-24T12:06:19;12.18;;;2.22;;